Unity, WI (54488)

3:15 PM CST on December 10, 2016 (GMT -0600)
Great Lakes Weather Service HQ | | Change Station
Active Advisory: Winter Weather Advisory

Elev 1430 ft 45.04 °N, 90.34 °W | Updated 30 seconds ago

Mostly Cloudy
Mostly Cloudy
11.4 °F
Feels Like 11 °F
N
1.0
Wind Variable Wind from South

Today
High -- | Low -- °F
--% Chance of Precip.
Yesterday
High -- | Low -- °F
Precip. -- in
Pressure 30.40 in
Visibility 10.0 miles
Clouds Clear
Windchill 11 °F
Dew Point 4 °F
Humidity 73%
Rainfall 0.00 in
Snow Depth Not available.
7:28 AM 4:20 PM
Waxing Gibbous, 86% visible
METAR KMFI 102054Z AUTO 00000KT 10SM CLR M11/M17 A3031 RMK AO2 SLP293 T11061167 56019
Pressure 30.40 in
Visibility 10.0 miles
Clouds Clear
Windchill 11 °F
Dew Point 4 °F
Humidity 73%
Rainfall 0.00 in
Snow Depth Not available.
7:28 AM 4:20 PM
Waxing Gibbous, 86% visible
METAR KMFI 102054Z AUTO 00000KT 10SM CLR M11/M17 A3031 RMK AO2 SLP293 T11061167 56019

10-Day Weather Forecast

Almanac

Astronomy

Dec. 10, 2016 Rise Set
Actual Time
Civil Twilight
Nautical Twilight
Astronomical Twilight
Moon
Length of Visible Light
Length of Day
Tomorrow will be .
, % of the Moon is Illuminated

Today's Extremes

State Highs State Lows

Community

WunderPhotos

Upload Photos

1,956,664 photos uploaded!

WunderBlog® & News

Nearby

Air Quality

  Air Quality AQ Index Pollutant
Not available.

Snow Depth

Station Depth Elevation

Earthquake Activity

City Distance Mag. Time & Date
Minimum magnitude displayed is 2.5.

Coastal Water Temperatures

Place Temperature

Stations

Nearby Weather Stations

Station Location Temp. Windchill Dew Point Humidity Wind Precip. Elev Updated Type
                   

Watches & Warnings

Winter Weather Advisory
Issued: 2:26 PM CST Dec. 10, 2016 – National Weather Service

... Winter Weather Advisory in effect from 9 PM this evening to
midnight CST Sunday night...

The National Weather Service in Green Bay has issued a Winter
Weather Advisory for snow... which is in effect from 9 PM this
evening to midnight CST Sunday night.

* Expect snow to develop around 9 PM and then diminish around
midnight Sunday night.

* Heaviest snowfall rates will occur between 6 am and noon
Sunday.

* Snow accumulations of 4 to 6 inches are expected.

* Hazardous travel conditions will develop tonight and continue
through Sunday evening.

Precautionary/preparedness actions...

A Winter Weather Advisory for snow means periods of snow will
cause primarily travel difficulties. Be prepared for snow covered
roads and limited visibilities... and use extra caution while
driving. The latest Wisconsin Road conditions can be obtained by
calling 511.